createdAt,value
2022-10-14T00:01:07.581Z,20.28
2022-10-14T00:03:36.472Z,20.44
2022-10-14T00:06:12.869Z,20.47
2022-10-14T00:08:40.386Z,20.53
2022-10-14T00:11:10.682Z,20.41
2022-10-14T00:13:37.611Z,20.49
2022-10-14T00:16:06.128Z,20.51
2022-10-14T00:18:32.917Z,20.51
2022-10-14T00:21:01.924Z,20.53
2022-10-14T00:23:28.423Z,20.39
2022-10-14T00:25:55.046Z,20.57
2022-10-14T00:28:21.590Z,20.64
2022-10-14T00:31:02.126Z,20.61
2022-10-14T00:33:28.907Z,20.64
2022-10-14T00:35:56.116Z,20.63
2022-10-14T00:38:22.890Z,20.56
2022-10-14T00:40:49.427Z,20.65
2022-10-14T00:43:16.567Z,20.63
2022-10-14T00:45:43.124Z,20.59
2022-10-14T00:48:10.799Z,20.66
2022-10-14T00:50:41.830Z,20.58
2022-10-14T00:53:11.216Z,20.61
2022-10-14T00:55:42.326Z,20.65
2022-10-14T00:58:10.407Z,20.54
2022-10-14T01:00:38.414Z,20.55
2022-10-14T01:03:10.535Z,20.51
2022-10-14T01:05:49.493Z,20.50
2022-10-14T01:08:33.365Z,20.56
2022-10-14T01:11:29.663Z,20.40
2022-10-14T01:14:10.400Z,20.27
2022-10-14T01:16:51.758Z,20.18
2022-10-14T01:19:42.416Z,20.23
2022-10-14T01:22:22.885Z,20.30
2022-10-14T01:25:21.850Z,20.06
2022-10-14T01:27:57.159Z,20.12
2022-10-14T01:30:27.887Z,19.97
2022-10-14T01:33:11.148Z,19.95
2022-10-14T01:35:50.627Z,20.09
2022-10-14T01:38:24.834Z,19.95
2022-10-14T01:41:11.603Z,19.94
2022-10-14T01:43:42.737Z,19.46
2022-10-14T01:46:13.301Z,19.69
2022-10-14T01:48:47.845Z,19.71
2022-10-14T01:51:22.519Z,19.78
2022-10-14T01:54:02.573Z,19.71
2022-10-14T01:56:36.967Z,19.52
2022-10-14T01:59:11.217Z,19.45
2022-10-14T02:01:38.113Z,19.65
2022-10-14T02:04:15.709Z,19.70
2022-10-14T02:06:51.648Z,19.81
2022-10-14T02:10:03.019Z,19.81
2022-10-14T02:12:44.355Z,19.84
2022-10-14T02:15:29.442Z,19.86
2022-10-14T02:18:13.517Z,19.89
2022-10-14T02:20:56.527Z,19.86
2022-10-14T02:23:29.890Z,19.83
2022-10-14T02:25:56.925Z,19.82
2022-10-14T02:28:29.353Z,19.78
2022-10-14T02:31:05.556Z,19.79
2022-10-14T02:33:42.616Z,19.72
2022-10-14T02:36:15.077Z,19.55
2022-10-14T02:38:43.556Z,19.58
2022-10-14T02:41:16.746Z,19.59
2022-10-14T02:43:45.799Z,19.07
2022-10-14T02:46:12.513Z,19.30
2022-10-14T02:48:39.062Z,19.36
2022-10-14T02:51:05.651Z,19.26
2022-10-14T02:53:32.204Z,19.28
2022-10-14T02:55:58.726Z,19.34
2022-10-14T02:58:25.191Z,19.33
2022-10-14T03:00:51.739Z,19.04
2022-10-14T03:03:18.298Z,19.08
2022-10-14T03:05:44.779Z,19.12
2022-10-14T03:08:11.242Z,18.86
2022-10-14T03:10:37.750Z,19.00
2022-10-14T03:13:04.185Z,18.65
2022-10-14T03:15:30.672Z,17.99
2022-10-14T03:17:57.147Z,18.27
2022-10-14T03:20:23.627Z,18.23
2022-10-14T03:22:50.120Z,18.12
2022-10-14T03:25:16.670Z,17.89
2022-10-14T03:27:43.364Z,17.78
2022-10-14T03:30:10.268Z,18.00
2022-10-14T03:32:36.783Z,18.23
2022-10-14T03:35:03.515Z,18.24
2022-10-14T03:37:30.057Z,18.41
2022-10-14T03:39:56.700Z,18.61
2022-10-14T03:42:23.593Z,18.26
2022-10-14T03:44:50.418Z,18.58
2022-10-14T03:47:16.983Z,18.42
2022-10-14T03:49:43.495Z,18.54
2022-10-14T03:52:10.058Z,18.72
2022-10-14T03:54:36.579Z,18.89
2022-10-14T03:57:03.189Z,18.81
2022-10-14T03:59:29.728Z,18.36
2022-10-14T04:01:56.476Z,18.17
2022-10-14T04:04:23.028Z,18.07
2022-10-14T04:06:49.521Z,18.15
2022-10-14T04:09:16.024Z,18.06
2022-10-14T04:11:42.748Z,18.51
2022-10-14T04:14:20.541Z,18.55
2022-10-14T04:16:49.837Z,18.34
2022-10-14T04:19:16.780Z,18.58
2022-10-14T04:21:43.287Z,17.99
2022-10-14T04:24:10.219Z,18.41
2022-10-14T04:26:36.737Z,18.62
2022-10-14T04:29:03.633Z,18.72
2022-10-14T04:31:30.253Z,18.88
2022-10-14T04:33:56.865Z,18.47
2022-10-14T04:36:23.380Z,18.39
2022-10-14T04:38:49.976Z,18.56
2022-10-14T04:41:16.440Z,18.27
2022-10-14T04:43:43.119Z,18.22
2022-10-14T04:46:09.627Z,18.02
2022-10-14T04:48:36.168Z,17.18
2022-10-14T04:51:02.717Z,17.37
2022-10-14T04:53:29.216Z,17.33
2022-10-14T04:55:55.692Z,17.85
2022-10-14T04:58:22.315Z,17.83
2022-10-14T05:00:48.884Z,17.24
2022-10-14T05:03:15.465Z,17.68
2022-10-14T05:05:41.981Z,17.61
2022-10-14T05:08:08.534Z,17.68
2022-10-14T05:10:34.990Z,17.80
2022-10-14T05:13:01.996Z,17.98
2022-10-14T05:15:28.654Z,17.73
2022-10-14T05:17:55.155Z,17.94
2022-10-14T05:20:21.667Z,18.07
2022-10-14T05:22:48.194Z,18.40
2022-10-14T05:25:14.715Z,18.55
2022-10-14T05:27:41.294Z,18.24
2022-10-14T05:30:08.556Z,18.32
2022-10-14T05:32:35.023Z,18.23
2022-10-14T05:35:01.502Z,18.50
2022-10-14T05:37:27.960Z,18.54
2022-10-14T05:39:54.701Z,18.38
2022-10-14T05:42:21.710Z,18.57
2022-10-14T05:44:48.495Z,18.48
2022-10-14T05:47:15.049Z,18.81
2022-10-14T05:49:41.672Z,18.94
2022-10-14T05:52:08.781Z,18.72
2022-10-14T05:54:35.377Z,18.85
2022-10-14T05:57:01.947Z,18.95
2022-10-14T05:59:28.467Z,18.82
2022-10-14T06:01:55.866Z,18.74
2022-10-14T06:04:22.787Z,18.88
2022-10-14T06:06:49.323Z,19.02
2022-10-14T06:09:16.571Z,19.05
2022-10-14T06:11:43.219Z,19.05
2022-10-14T06:14:10.484Z,19.21
2022-10-14T06:16:37.111Z,19.12
2022-10-14T06:19:03.735Z,18.95
2022-10-14T06:21:30.219Z,18.68
2022-10-14T06:23:56.719Z,18.86
2022-10-14T06:26:23.241Z,18.87
2022-10-14T06:28:50.151Z,18.80
2022-10-14T06:31:16.717Z,18.96
2022-10-14T06:33:43.264Z,18.90
2022-10-14T06:36:10.552Z,18.78
2022-10-14T06:38:37.115Z,18.86
2022-10-14T06:41:03.678Z,18.79
2022-10-14T06:43:30.234Z,18.54
2022-10-14T06:45:58.239Z,18.68
2022-10-14T06:48:24.815Z,18.51
2022-10-14T06:50:52.212Z,18.56
2022-10-14T06:53:18.931Z,18.84
2022-10-14T06:55:45.515Z,18.99
2022-10-14T06:58:12.315Z,18.99
2022-10-14T07:00:38.834Z,18.86
2022-10-14T07:03:05.385Z,18.93
2022-10-14T07:05:31.885Z,19.06
2022-10-14T07:07:58.502Z,18.79
2022-10-14T07:10:24.993Z,19.01
2022-10-14T07:12:54.600Z,19.15
2022-10-14T07:15:21.108Z,18.85
2022-10-14T07:17:47.684Z,18.64
2022-10-14T07:20:14.337Z,18.81
2022-10-14T07:22:40.848Z,18.95
2022-10-14T07:25:07.781Z,19.04
2022-10-14T07:27:34.262Z,18.97
2022-10-14T07:30:00.744Z,19.10
2022-10-14T07:32:27.810Z,18.82
2022-10-14T07:34:54.428Z,19.15
2022-10-14T07:37:21.217Z,19.00
2022-10-14T07:39:48.172Z,18.75
2022-10-14T07:42:14.829Z,18.94
2022-10-14T07:44:41.527Z,18.94
2022-10-14T07:47:08.086Z,19.06
2022-10-14T07:49:35.291Z,18.94
2022-10-14T07:52:02.705Z,18.94
2022-10-14T07:54:30.663Z,18.87
2022-10-14T07:56:57.162Z,18.95
2022-10-14T07:59:23.656Z,18.69
2022-10-14T08:01:52.170Z,18.60
2022-10-14T08:04:19.774Z,18.45
2022-10-14T08:06:50.669Z,18.34
2022-10-14T08:09:19.323Z,18.26
2022-10-14T08:11:46.867Z,18.71
2022-10-14T08:14:14.200Z,18.27
2022-10-14T08:16:41.422Z,18.12
2022-10-14T08:19:14.110Z,17.88
2022-10-14T08:21:43.037Z,18.12
2022-10-14T08:24:10.287Z,18.04
2022-10-14T08:26:39.347Z,18.15
2022-10-14T08:29:11.956Z,18.12
2022-10-14T08:31:38.571Z,18.21
2022-10-14T08:34:05.100Z,18.37
2022-10-14T08:36:31.778Z,18.25
2022-10-14T08:38:58.571Z,18.07
2022-10-14T08:41:52.841Z,18.06
2022-10-14T08:44:23.257Z,18.27
2022-10-14T08:46:59.231Z,18.14
2022-10-14T08:49:49.734Z,18.11
2022-10-14T08:52:28.076Z,18.08
2022-10-14T08:55:00.683Z,18.09
2022-10-14T08:57:35.007Z,18.19
2022-10-14T09:00:02.234Z,18.23
2022-10-14T09:02:38.852Z,18.18
2022-10-14T09:05:06.412Z,18.02
2022-10-14T09:07:36.957Z,18.27
2022-10-14T09:10:36.685Z,18.52
2022-10-14T09:13:24.386Z,18.35
2022-10-14T09:16:02.221Z,18.24
2022-10-14T09:18:33.938Z,18.38
2022-10-14T09:21:18.471Z,18.71
2022-10-14T09:23:58.545Z,19.05
2022-10-14T09:26:38.799Z,19.16
2022-10-14T09:29:14.289Z,19.30
2022-10-14T09:31:40.802Z,19.61
2022-10-14T09:34:20.310Z,19.51
2022-10-14T09:36:50.573Z,19.50
2022-10-14T09:39:17.530Z,19.28
2022-10-14T09:41:49.579Z,18.89
2022-10-14T09:44:24.951Z,18.92
2022-10-14T09:47:01.985Z,19.25
2022-10-14T09:49:40.205Z,18.80
2022-10-14T09:52:20.125Z,18.75
2022-10-14T09:54:57.231Z,18.67
2022-10-14T09:57:35.570Z,19.11
2022-10-14T10:00:06.218Z,18.90
2022-10-14T10:02:48.770Z,18.55
2022-10-14T10:05:23.903Z,18.79
2022-10-14T10:08:15.237Z,18.91
2022-10-14T10:10:54.587Z,18.67
2022-10-14T10:13:30.630Z,18.34
2022-10-14T10:16:18.291Z,18.29
2022-10-14T10:18:46.063Z,18.48
2022-10-14T10:21:26.729Z,18.57
2022-10-14T10:23:58.504Z,18.44
2022-10-14T10:26:32.187Z,18.64
2022-10-14T10:29:01.854Z,18.99
2022-10-14T10:31:47.091Z,19.27
2022-10-14T10:34:53.696Z,19.01
2022-10-14T10:37:55.659Z,19.21
2022-10-14T10:40:28.111Z,19.05
2022-10-14T10:43:19.685Z,19.40
2022-10-14T10:46:31.064Z,19.26
2022-10-14T10:49:51.493Z,19.14
2022-10-14T10:52:39.146Z,19.29
2022-10-14T10:55:49.741Z,19.23
2022-10-14T10:58:33.183Z,19.08
2022-10-14T11:01:30.692Z,18.82
2022-10-14T11:04:21.750Z,18.89
2022-10-14T11:06:56.237Z,19.47
2022-10-14T11:09:39.208Z,19.49
2022-10-14T11:12:20.217Z,19.81
2022-10-14T11:15:13.523Z,19.60
2022-10-14T11:17:53.409Z,20.11
2022-10-14T11:20:38.254Z,20.06
2022-10-14T11:23:29.368Z,19.88
2022-10-14T11:26:03.351Z,19.38
2022-10-14T11:28:49.381Z,19.99
2022-10-14T11:31:36.263Z,19.89
2022-10-14T11:34:20.570Z,19.75
2022-10-14T11:37:33.935Z,19.97
2022-10-14T11:40:24.413Z,20.17
2022-10-14T11:43:33.773Z,20.45
2022-10-14T11:46:12.589Z,20.35
2022-10-14T11:48:47.901Z,20.83
2022-10-14T11:51:38.340Z,20.27
2022-10-14T11:54:18.595Z,20.22
2022-10-14T11:56:57.463Z,20.26
2022-10-14T11:59:36.585Z,19.94
2022-10-14T12:02:16.752Z,20.25
2022-10-14T12:04:52.174Z,20.30
2022-10-14T12:07:28.460Z,20.38
2022-10-14T12:10:05.906Z,20.51
2022-10-14T12:12:36.024Z,20.85
2022-10-14T12:15:13.517Z,20.63
2022-10-14T12:17:46.153Z,20.57
2022-10-14T12:20:52.172Z,20.88
2022-10-14T12:23:47.232Z,20.87
2022-10-14T12:26:19.794Z,20.69
2022-10-14T12:28:48.056Z,20.98
2022-10-14T12:31:35.999Z,20.99
2022-10-14T12:34:11.229Z,21.10
2022-10-14T12:36:39.807Z,20.96
2022-10-14T12:39:18.230Z,21.07
2022-10-14T12:42:11.567Z,21.06
2022-10-14T12:44:54.610Z,21.24
2022-10-14T12:47:29.124Z,21.31
2022-10-14T12:50:01.053Z,21.41
2022-10-14T12:52:33.117Z,20.88
2022-10-14T12:55:08.264Z,20.58
2022-10-14T12:57:40.038Z,20.87
2022-10-14T13:00:23.740Z,20.86
2022-10-14T13:02:54.650Z,20.59
2022-10-14T13:05:42.472Z,20.39
2022-10-14T13:08:11.751Z,20.67
2022-10-14T13:10:43.130Z,20.48
2022-10-14T13:13:37.645Z,20.85
2022-10-14T13:16:05.549Z,20.81
2022-10-14T13:18:35.977Z,20.51
2022-10-14T13:21:03.794Z,20.81
2022-10-14T13:23:39.906Z,21.09
2022-10-14T13:26:23.861Z,20.67
2022-10-14T13:29:11.929Z,20.72
2022-10-14T13:32:06.419Z,20.66
2022-10-14T13:34:55.308Z,20.37
2022-10-14T13:37:34.762Z,20.16
2022-10-14T13:40:25.149Z,20.15
2022-10-14T13:42:59.502Z,20.27
2022-10-14T13:45:42.581Z,19.65
2022-10-14T13:48:17.081Z,19.69
2022-10-14T13:50:47.676Z,19.46
2022-10-14T13:53:18.372Z,19.46
2022-10-14T13:55:53.139Z,19.40
2022-10-14T13:58:25.262Z,19.49
2022-10-14T14:00:54.525Z,19.82
2022-10-14T14:03:25.980Z,19.35
2022-10-14T14:05:54.145Z,19.57
2022-10-14T14:08:46.953Z,19.42
2022-10-14T14:11:23.760Z,19.35
2022-10-14T14:14:06.790Z,19.42
2022-10-14T14:17:04.051Z,19.12
2022-10-14T14:19:32.253Z,19.15
2022-10-14T14:22:23.581Z,19.86
2022-10-14T14:24:51.665Z,19.75
2022-10-14T14:27:21.511Z,19.97
2022-10-14T14:29:51.882Z,19.51
2022-10-14T14:32:23.369Z,19.30
2022-10-14T14:34:51.870Z,19.21
2022-10-14T14:37:48.109Z,19.36
2022-10-14T14:40:23.974Z,19.00
2022-10-14T14:42:54.793Z,19.01
2022-10-14T14:45:27.573Z,18.94
2022-10-14T14:47:57.679Z,18.76
2022-10-14T14:50:32.201Z,18.58
2022-10-14T14:53:06.679Z,18.60
2022-10-14T14:55:53.499Z,18.43
2022-10-14T14:58:32.542Z,18.58
2022-10-14T15:00:59.588Z,18.21
2022-10-14T15:03:30.845Z,18.20
2022-10-14T15:06:04.525Z,18.14
2022-10-14T15:08:35.795Z,18.17
2022-10-14T15:11:03.076Z,18.19
2022-10-14T15:13:38.885Z,18.08
2022-10-14T15:16:07.575Z,18.35
2022-10-14T15:18:34.479Z,17.90
2022-10-14T15:21:19.352Z,17.76
2022-10-14T15:23:49.008Z,18.15
2022-10-14T15:26:27.709Z,17.91
2022-10-14T15:29:08.067Z,17.85
2022-10-14T15:31:36.818Z,17.73
2022-10-14T15:34:05.341Z,17.52
2022-10-14T15:36:34.445Z,17.53
2022-10-14T15:39:01.010Z,17.53
2022-10-14T15:41:28.442Z,17.50
2022-10-14T15:43:54.964Z,17.61
2022-10-14T15:46:22.662Z,17.65
2022-10-14T15:48:53.680Z,17.74
2022-10-14T15:51:22.558Z,17.78
2022-10-14T15:53:50.363Z,17.95
2022-10-14T15:56:16.860Z,17.92
2022-10-14T15:58:43.328Z,18.38
2022-10-14T16:01:18.596Z,18.24
2022-10-14T16:03:45.156Z,18.48
2022-10-14T16:06:12.229Z,18.38
2022-10-14T16:08:55.202Z,18.53
2022-10-14T16:11:29.140Z,18.80
2022-10-14T16:13:56.045Z,18.76
2022-10-14T16:16:33.721Z,18.55
2022-10-14T16:19:00.237Z,18.01
2022-10-14T16:21:26.724Z,18.12
2022-10-14T16:23:53.324Z,17.73
2022-10-14T16:26:19.770Z,17.98
2022-10-14T16:28:46.290Z,18.04
2022-10-14T16:31:14.747Z,17.76
2022-10-14T16:33:44.722Z,17.76
2022-10-14T16:36:15.373Z,17.71
2022-10-14T16:38:42.066Z,18.02
2022-10-14T16:41:11.031Z,17.87
2022-10-14T16:43:37.661Z,17.85
2022-10-14T16:46:07.510Z,17.97
2022-10-14T16:48:36.146Z,17.89
2022-10-14T16:51:02.720Z,18.11
2022-10-14T16:53:30.535Z,18.31
2022-10-14T16:55:57.351Z,18.25
2022-10-14T16:58:23.962Z,18.04
2022-10-14T17:00:50.447Z,17.75
2022-10-14T17:03:16.929Z,17.77
2022-10-14T17:05:43.538Z,17.98
2022-10-14T17:08:10.039Z,17.82
2022-10-14T17:10:38.750Z,17.80
2022-10-14T17:13:05.669Z,17.79
2022-10-14T17:15:32.147Z,17.66
2022-10-14T17:17:58.675Z,17.71
2022-10-14T17:20:25.211Z,17.64
2022-10-14T17:22:51.704Z,17.93
2022-10-14T17:25:18.245Z,17.93
2022-10-14T17:27:44.703Z,17.47
2022-10-14T17:30:11.701Z,17.42
2022-10-14T17:32:38.188Z,17.58
2022-10-14T17:35:05.265Z,17.88
2022-10-14T17:37:31.727Z,17.89
2022-10-14T17:39:58.251Z,18.12
2022-10-14T17:42:25.057Z,17.62
2022-10-14T17:44:51.797Z,17.78
2022-10-14T17:47:18.443Z,17.76
2022-10-14T17:49:44.980Z,17.36
2022-10-14T17:52:11.587Z,17.80
2022-10-14T17:54:38.056Z,17.57
2022-10-14T17:57:04.645Z,17.57
2022-10-14T17:59:31.147Z,17.80
2022-10-14T18:02:02.692Z,17.74
2022-10-14T18:04:30.776Z,17.41
2022-10-14T18:06:57.311Z,17.81
2022-10-14T18:09:26.758Z,18.10
2022-10-14T18:12:08.236Z,18.35
2022-10-14T18:14:35.903Z,17.77
2022-10-14T18:17:02.383Z,18.31
2022-10-14T18:19:28.964Z,18.17
2022-10-14T18:21:55.460Z,18.18
2022-10-14T18:24:21.942Z,17.98
2022-10-14T18:26:52.164Z,17.92
2022-10-14T18:29:18.617Z,17.72
2022-10-14T18:31:45.143Z,17.68
2022-10-14T18:34:12.175Z,17.93
2022-10-14T18:36:38.882Z,18.08
2022-10-14T18:39:08.601Z,17.96
2022-10-14T18:41:35.836Z,18.13
2022-10-14T18:44:02.727Z,18.12
2022-10-14T18:46:31.875Z,17.93
2022-10-14T18:49:00.236Z,17.76
2022-10-14T18:51:32.810Z,17.90
2022-10-14T18:54:05.020Z,18.00
2022-10-14T18:56:36.926Z,18.34
2022-10-14T18:59:16.018Z,18.49
2022-10-14T19:01:42.811Z,18.73
2022-10-14T19:04:12.190Z,18.56
2022-10-14T19:06:39.008Z,18.51
2022-10-14T19:09:07.287Z,18.50
2022-10-14T19:11:34.958Z,18.71
2022-10-14T19:14:04.139Z,18.85
2022-10-14T19:16:36.971Z,18.72
2022-10-14T19:19:04.733Z,18.76
2022-10-14T19:21:31.284Z,18.92
2022-10-14T19:23:58.917Z,19.21
2022-10-14T19:26:29.321Z,19.13
2022-10-14T19:28:56.872Z,19.17
2022-10-14T19:31:31.217Z,19.16
2022-10-14T19:34:01.157Z,19.06
2022-10-14T19:36:28.176Z,18.82
2022-10-14T19:38:59.352Z,18.88
2022-10-14T19:41:29.323Z,18.70
2022-10-14T19:43:58.616Z,18.45
2022-10-14T19:46:27.502Z,18.23
2022-10-14T19:49:01.934Z,17.99
2022-10-14T19:51:29.027Z,17.85
2022-10-14T19:53:56.545Z,18.00
2022-10-14T19:56:23.801Z,18.06
2022-10-14T19:58:52.959Z,18.02
2022-10-14T20:01:22.267Z,17.78
2022-10-14T20:03:49.150Z,17.53
2022-10-14T20:06:15.808Z,17.82
2022-10-14T20:08:42.613Z,17.59
2022-10-14T20:11:11.639Z,17.58
2022-10-14T20:13:38.574Z,17.75
2022-10-14T20:16:07.941Z,17.63
2022-10-14T20:18:35.129Z,17.43
2022-10-14T20:21:04.304Z,17.26
2022-10-14T20:23:33.605Z,17.60
2022-10-14T20:26:01.279Z,17.65
2022-10-14T20:28:27.813Z,17.53
2022-10-14T20:30:54.417Z,17.49
2022-10-14T20:33:20.871Z,17.71
2022-10-14T20:35:47.385Z,17.42
2022-10-14T20:38:13.937Z,17.72
2022-10-14T20:40:40.449Z,17.73
2022-10-14T20:43:08.587Z,17.87
2022-10-14T20:45:35.101Z,17.67
2022-10-14T20:48:01.561Z,17.93
2022-10-14T20:50:28.095Z,17.89
2022-10-14T20:52:54.594Z,17.90
2022-10-14T20:55:21.092Z,18.18
2022-10-14T20:57:47.564Z,18.29
2022-10-14T21:00:14.476Z,18.45
2022-10-14T21:02:40.982Z,18.53
2022-10-14T21:05:07.826Z,18.51
2022-10-14T21:07:34.386Z,18.27
2022-10-14T21:10:00.958Z,18.24
2022-10-14T21:12:27.467Z,18.30
2022-10-14T21:14:53.930Z,18.49
2022-10-14T21:17:20.418Z,18.33
2022-10-14T21:19:47.930Z,18.42
2022-10-14T21:22:14.409Z,18.47
2022-10-14T21:24:40.860Z,18.26
2022-10-14T21:27:07.785Z,18.24
2022-10-14T21:29:34.247Z,18.25
2022-10-14T21:32:00.720Z,18.34
2022-10-14T21:34:27.209Z,18.26
2022-10-14T21:36:53.766Z,18.26
2022-10-14T21:39:20.221Z,18.24
2022-10-14T21:41:46.729Z,18.39
2022-10-14T21:44:17.015Z,18.44
2022-10-14T21:46:43.774Z,18.37
2022-10-14T21:49:11.527Z,18.71
2022-10-14T21:51:39.202Z,18.76
2022-10-14T21:54:06.249Z,18.89
2022-10-14T21:56:32.929Z,18.65
2022-10-14T21:58:59.390Z,18.66
2022-10-14T22:01:28.608Z,18.61
2022-10-14T22:03:56.546Z,18.40
2022-10-14T22:06:24.002Z,18.42
2022-10-14T22:08:52.153Z,18.59
2022-10-14T22:11:31.282Z,18.81
2022-10-14T22:13:59.942Z,18.70
2022-10-14T22:16:27.513Z,18.80
2022-10-14T22:18:54.594Z,19.09
2022-10-14T22:21:25.006Z,18.81
2022-10-14T22:23:52.511Z,18.96
2022-10-14T22:26:21.805Z,19.12
2022-10-14T22:28:48.393Z,19.19
2022-10-14T22:31:20.321Z,19.04
2022-10-14T22:33:48.169Z,19.09
2022-10-14T22:36:20.861Z,19.06
2022-10-14T22:38:51.995Z,19.40
2022-10-14T22:41:19.835Z,19.17
2022-10-14T22:43:48.281Z,19.24
2022-10-14T22:46:16.853Z,19.41
2022-10-14T22:48:43.352Z,19.53
2022-10-14T22:51:12.230Z,19.56
2022-10-14T22:53:42.565Z,19.46
2022-10-14T22:56:11.460Z,19.72
2022-10-14T22:58:38.171Z,19.70
2022-10-14T23:01:12.315Z,19.64
2022-10-14T23:03:39.813Z,19.79
2022-10-14T23:06:09.718Z,19.71
2022-10-14T23:08:36.431Z,19.67
2022-10-14T23:11:04.699Z,19.28
2022-10-14T23:13:32.025Z,19.26
2022-10-14T23:16:06.804Z,19.05
2022-10-14T23:18:36.456Z,18.90
2022-10-14T23:21:21.900Z,18.81
2022-10-14T23:23:50.816Z,18.86
2022-10-14T23:26:19.846Z,19.11
2022-10-14T23:28:57.745Z,19.34
2022-10-14T23:31:27.667Z,19.27
2022-10-14T23:33:54.892Z,18.88
2022-10-14T23:36:22.789Z,18.42
2022-10-14T23:38:50.701Z,18.64
2022-10-14T23:41:17.254Z,18.43
2022-10-14T23:43:43.796Z,18.22
2022-10-14T23:46:10.777Z,18.23
2022-10-14T23:48:37.361Z,18.28
2022-10-14T23:51:04.412Z,17.81
2022-10-14T23:53:31.601Z,17.60
2022-10-14T23:56:01.125Z,17.56
2022-10-14T23:58:28.716Z,17.53
